createdAt,value
2023-02-13T00:04:01.177Z,99842.88
2023-02-13T00:09:05.172Z,99850.69
2023-02-13T00:14:08.429Z,99848.94
2023-02-13T00:19:10.240Z,99842.50
2023-02-13T00:24:12.160Z,99846.06
2023-02-13T00:29:14.031Z,99835.59
2023-02-13T00:34:15.879Z,99845.34
2023-02-13T00:39:17.682Z,99844.50
2023-02-13T00:44:19.696Z,99835.81
2023-02-13T00:49:21.662Z,99832.78
2023-02-13T00:54:23.516Z,99834.31
2023-02-13T00:59:25.362Z,99838.56
2023-02-13T01:04:27.271Z,99848.41
2023-02-13T01:09:32.078Z,99842.81
2023-02-13T01:14:34.081Z,99850.56
2023-02-13T01:19:35.916Z,99855.50
2023-02-13T01:24:37.757Z,99853.25
2023-02-13T01:29:39.602Z,99854.00
2023-02-13T01:34:41.501Z,99848.75
2023-02-13T01:39:43.341Z,99842.75
2023-02-13T01:44:48.080Z,99836.50
2023-02-13T01:50:05.685Z,99835.03
2023-02-13T01:55:09.288Z,99828.97
2023-02-13T02:00:17.600Z,99828.41
2023-02-13T02:05:21.884Z,99831.72
2023-02-13T02:10:24.259Z,99825.53
2023-02-13T02:15:27.135Z,99824.41
2023-02-13T02:20:57.237Z,99817.78
2023-02-13T02:26:44.163Z,99815.44
2023-02-13T02:32:19.841Z,99810.78
2023-02-13T02:37:52.138Z,99814.66
2023-02-13T02:43:18.783Z,99818.06
2023-02-13T02:49:02.818Z,99803.31
2023-02-13T02:54:37.655Z,99804.69
2023-02-13T03:00:15.508Z,99806.44
2023-02-13T03:05:59.158Z,99797.94
2023-02-13T03:11:19.701Z,99794.59
2023-02-13T03:16:44.065Z,99791.66
2023-02-13T03:22:21.572Z,99790.75
2023-02-13T03:27:48.145Z,99796.00
2023-02-13T03:33:39.473Z,99793.16
2023-02-13T03:38:57.442Z,99802.69
2023-02-13T03:44:23.200Z,99811.56
2023-02-13T03:49:50.115Z,99811.50
2023-02-13T03:55:18.651Z,99810.84
2023-02-13T04:00:22.305Z,99811.00
2023-02-13T04:05:28.438Z,99827.31
2023-02-13T04:10:34.211Z,99824.84
2023-02-13T04:16:10.320Z,99831.88
2023-02-13T04:21:12.123Z,99827.63
2023-02-13T04:26:18.716Z,99821.91
2023-02-13T04:31:20.648Z,99833.72
2023-02-13T04:36:22.571Z,99822.28
2023-02-13T04:41:24.414Z,99829.53
2023-02-13T04:46:26.392Z,99822.13
2023-02-13T04:51:28.380Z,99821.63
2023-02-13T04:56:30.235Z,99812.63
2023-02-13T05:01:32.069Z,99813.81
2023-02-13T05:06:33.919Z,99808.56
2023-02-13T05:11:35.749Z,99809.41
2023-02-13T05:16:37.601Z,99803.00
2023-02-13T05:21:57.896Z,99806.41
2023-02-13T05:26:59.726Z,99804.44
2023-02-13T05:32:01.681Z,99809.53
2023-02-13T05:37:03.606Z,99801.50
2023-02-13T05:42:05.714Z,99807.28
2023-02-13T05:47:07.547Z,99809.94
2023-02-13T05:52:09.440Z,99814.53
2023-02-13T05:57:11.339Z,99813.13
2023-02-13T06:02:13.237Z,99816.63
2023-02-13T06:07:15.053Z,99818.69
2023-02-13T06:12:17.034Z,99817.44
2023-02-13T06:17:18.879Z,99817.78
2023-02-13T06:22:20.731Z,99819.03
2023-02-13T06:27:22.631Z,99831.00
2023-02-13T06:32:24.621Z,99842.22
2023-02-13T06:37:26.442Z,99844.88
2023-02-13T06:42:28.375Z,99848.44
2023-02-13T06:47:30.314Z,99847.59
2023-02-13T06:52:32.213Z,99843.63
2023-02-13T06:57:34.660Z,99857.22
2023-02-13T07:02:37.697Z,99853.44
2023-02-13T07:07:41.318Z,99868.69
2023-02-13T07:12:44.626Z,99866.88
2023-02-13T07:17:47.613Z,99872.03
2023-02-13T07:22:49.454Z,99870.28
2023-02-13T07:27:51.250Z,99865.63
2023-02-13T07:32:53.067Z,99877.09
2023-02-13T07:37:55.403Z,99866.53
2023-02-13T07:43:00.802Z,99869.44
2023-02-13T07:48:02.630Z,99864.97
2023-02-13T07:53:04.488Z,99865.28
2023-02-13T07:58:06.334Z,99867.94
2023-02-13T08:03:08.167Z,99861.56
2023-02-13T08:08:10.050Z,99857.41
2023-02-13T08:13:14.957Z,99860.13
2023-02-13T08:18:18.860Z,99868.91
2023-02-13T08:23:21.604Z,99866.13
2023-02-13T08:28:23.527Z,99882.56
2023-02-13T08:33:25.553Z,99883.97
2023-02-13T08:38:27.403Z,99892.56
2023-02-13T08:43:29.233Z,99884.53
2023-02-13T08:48:31.230Z,99880.84
2023-02-13T08:53:34.140Z,99884.72
2023-02-13T08:58:36.041Z,99882.88
2023-02-13T09:03:37.971Z,99880.88
2023-02-13T09:08:39.793Z,99878.97
2023-02-13T09:13:41.606Z,99892.53
2023-02-13T09:18:43.417Z,99897.59
2023-02-13T09:23:45.499Z,99895.69
2023-02-13T09:28:47.391Z,99898.25
2023-02-13T09:33:50.068Z,99899.75
2023-02-13T09:38:54.340Z,99905.84
2023-02-13T09:44:04.673Z,99913.03
2023-02-13T09:49:19.845Z,99912.47
2023-02-13T09:54:21.717Z,99913.88
2023-02-13T09:59:43.293Z,99904.66
2023-02-13T10:05:03.481Z,99899.22
2023-02-13T10:10:11.350Z,99905.31
2023-02-13T10:15:22.491Z,99907.13
2023-02-13T10:20:39.773Z,99913.50
2023-02-13T10:25:49.130Z,99913.97
2023-02-13T10:30:55.252Z,99906.31
2023-02-13T10:36:09.314Z,99896.19
2023-02-13T10:41:25.836Z,99901.88
2023-02-13T10:46:30.909Z,99904.09
2023-02-13T10:51:40.000Z,99899.34
2023-02-13T10:56:56.900Z,99891.94
2023-02-13T11:02:27.217Z,99876.84
2023-02-13T11:07:30.672Z,99876.09
2023-02-13T11:12:34.524Z,99877.09
2023-02-13T11:17:40.787Z,99872.63
2023-02-13T11:22:43.071Z,99862.06
2023-02-13T11:27:47.366Z,99861.63
2023-02-13T11:33:06.815Z,99847.50
2023-02-13T11:38:20.530Z,99841.50
2023-02-13T11:43:30.236Z,99839.78
2023-02-13T11:48:32.213Z,99844.72
2023-02-13T11:53:40.181Z,99833.28
2023-02-13T11:58:42.829Z,99834.63
2023-02-13T12:03:44.773Z,99827.72
2023-02-13T12:08:49.717Z,99831.44
2023-02-13T12:13:52.756Z,99828.34
2023-02-13T12:18:59.580Z,99822.06
2023-02-13T12:24:15.586Z,99816.13
2023-02-13T12:29:39.243Z,99820.34
2023-02-13T12:34:58.435Z,99820.88
2023-02-13T12:40:24.247Z,99814.47
2023-02-13T12:45:49.091Z,99809.91
2023-02-13T12:51:05.152Z,99812.13
2023-02-13T12:56:15.922Z,99808.44
2023-02-13T13:01:55.549Z,99808.38
2023-02-13T13:07:41.995Z,99800.47
2023-02-13T13:12:47.240Z,99810.34
2023-02-13T13:18:17.597Z,99805.53
2023-02-13T13:23:26.194Z,99802.91
2023-02-13T13:28:43.718Z,99813.66
2023-02-13T13:33:48.095Z,99818.72
2023-02-13T13:39:21.765Z,99809.97
2023-02-13T13:44:38.711Z,99810.69
2023-02-13T13:49:53.906Z,99809.53
2023-02-13T13:55:00.244Z,99803.22
2023-02-13T14:00:14.194Z,99800.91
2023-02-13T14:05:32.030Z,99794.50
2023-02-13T14:10:33.943Z,99783.56
2023-02-13T14:15:38.895Z,99784.94
2023-02-13T14:20:44.433Z,99784.72
2023-02-13T14:25:46.626Z,99777.56
2023-02-13T14:30:50.132Z,99784.69
2023-02-13T14:36:23.237Z,99776.53
2023-02-13T14:42:01.848Z,99774.72
2023-02-13T14:47:15.122Z,99777.78
2023-02-13T14:52:26.534Z,99783.97
2023-02-13T14:57:34.446Z,99785.31
2023-02-13T15:02:44.652Z,99776.50
2023-02-13T15:07:50.987Z,99760.50
2023-02-13T15:13:01.563Z,99762.22
2023-02-13T15:18:09.857Z,99764.53
2023-02-13T15:23:32.699Z,99768.69
2023-02-13T15:28:36.101Z,99763.25
2023-02-13T15:33:51.088Z,99766.94
2023-02-13T15:39:00.194Z,99765.66
2023-02-13T15:44:03.336Z,99755.88
2023-02-13T15:49:08.354Z,99749.06
2023-02-13T15:54:31.187Z,99744.25
2023-02-13T15:59:38.975Z,99741.41
2023-02-13T16:04:42.303Z,99731.91
2023-02-13T16:09:44.538Z,99723.16
2023-02-13T16:14:59.956Z,99718.84
2023-02-13T16:20:11.496Z,99718.13
2023-02-13T16:25:13.346Z,99728.25
2023-02-13T16:30:34.033Z,99724.56
2023-02-13T16:35:38.339Z,99719.91
2023-02-13T16:40:42.900Z,99710.97
2023-02-13T16:45:44.852Z,99711.50
2023-02-13T16:50:46.770Z,99727.25
2023-02-13T16:55:57.764Z,99743.00
2023-02-13T17:01:01.953Z,99742.47
2023-02-13T17:06:04.004Z,99749.38
2023-02-13T17:11:07.908Z,99753.31
2023-02-13T17:16:10.232Z,99747.44
2023-02-13T17:21:12.768Z,99751.47
2023-02-13T17:26:14.545Z,99745.88
2023-02-13T17:31:16.438Z,99750.19
2023-02-13T17:36:18.387Z,99751.56
2023-02-13T17:41:20.841Z,99742.16
2023-02-13T17:46:22.776Z,99749.53
2023-02-13T17:51:24.621Z,99748.78
2023-02-13T17:56:26.459Z,99744.53
2023-02-13T18:01:28.435Z,99737.09
2023-02-13T18:06:30.365Z,99738.75
2023-02-13T18:11:32.183Z,99738.13
2023-02-13T18:16:33.962Z,99737.66
2023-02-13T18:21:35.791Z,99732.41
2023-02-13T18:26:37.686Z,99723.03
2023-02-13T18:31:39.740Z,99729.28
2023-02-13T18:36:41.576Z,99731.16
2023-02-13T18:41:43.894Z,99729.72
2023-02-13T18:46:45.762Z,99718.69
2023-02-13T18:51:47.689Z,99717.38
2023-02-13T18:56:49.957Z,99720.06
2023-02-13T19:01:51.852Z,99723.56
2023-02-13T19:06:53.809Z,99711.50
2023-02-13T19:11:55.609Z,99711.03
2023-02-13T19:16:57.422Z,99709.66
2023-02-13T19:21:59.253Z,99721.38
2023-02-13T19:27:01.165Z,99720.03
2023-02-13T19:32:03.269Z,99729.25
2023-02-13T19:37:05.270Z,99733.59
2023-02-13T19:42:08.081Z,99732.13
2023-02-13T19:47:13.201Z,99729.00
2023-02-13T19:52:15.146Z,99726.78
2023-02-13T19:57:18.442Z,99718.13
2023-02-13T20:02:21.642Z,99713.16
2023-02-13T20:07:23.521Z,99705.13
2023-02-13T20:12:25.445Z,99705.09
2023-02-13T20:17:27.390Z,99700.44
2023-02-13T20:22:30.960Z,99705.56
2023-02-13T20:27:32.815Z,99709.88
2023-02-13T20:32:34.810Z,99707.34
2023-02-13T20:37:36.720Z,99709.16
2023-02-13T20:42:38.527Z,99704.38
2023-02-13T20:47:42.842Z,99707.78
2023-02-13T20:52:44.782Z,99702.09
2023-02-13T20:57:46.672Z,99701.41
2023-02-13T21:02:48.485Z,99707.13
2023-02-13T21:07:50.386Z,99691.78
2023-02-13T21:12:52.234Z,99702.34
2023-02-13T21:17:54.177Z,99692.69
2023-02-13T21:22:56.632Z,99684.81
2023-02-13T21:27:59.110Z,99685.09
2023-02-13T21:33:00.916Z,99689.41
2023-02-13T21:38:02.727Z,99712.13
2023-02-13T21:43:04.616Z,99722.28
2023-02-13T21:48:06.577Z,99729.38
2023-02-13T21:53:08.413Z,99729.91
2023-02-13T21:58:10.286Z,99726.94
2023-02-13T22:03:12.185Z,99730.38
2023-02-13T22:08:14.035Z,99727.81
2023-02-13T22:13:15.853Z,99741.06
2023-02-13T22:18:17.661Z,99735.44
2023-02-13T22:23:19.511Z,99744.31
2023-02-13T22:28:21.323Z,99748.06
2023-02-13T22:33:23.360Z,99745.41
2023-02-13T22:38:25.318Z,99750.94
2023-02-13T22:43:27.204Z,99750.44
2023-02-13T22:48:29.057Z,99754.88
2023-02-13T22:53:31.690Z,99745.16
2023-02-13T22:58:34.067Z,99750.22
2023-02-13T23:03:35.879Z,99751.63
2023-02-13T23:08:38.031Z,99754.34
2023-02-13T23:13:39.845Z,99754.50
2023-02-13T23:18:42.287Z,99762.56
2023-02-13T23:23:44.112Z,99774.56
2023-02-13T23:28:46.060Z,99765.81
2023-02-13T23:33:47.870Z,99757.66
2023-02-13T23:38:49.687Z,99760.16
2023-02-13T23:43:51.536Z,99758.09
2023-02-13T23:48:53.401Z,99775.22
2023-02-13T23:53:57.299Z,99769.63
2023-02-13T23:58:59.265Z,99770.75
